Time;durP1;ratioP1;P1;durP2;ratioP2;P2;SDS_P1;SDS_P2;PMS_P1;PMS_P2;Temp;Humidity;BMP_temperature;BMP_pressure;BME280_temperature;BME280_humidity;BME280_pressure;Samples;Min_cycle;Max_cycle;Signal;HPM_P1;HPM_P2
2023/11/14 00:01:09;;;;;;;32.97;3.78;;;;;;;9.79;100.00;99976.00;5025915;28;20666;-83
2023/11/14 00:03:34;;;;;;;39.20;5.90;;;;;;;9.66;100.00;99958.47;5006644;28;20427;-81
2023/11/14 00:06:01;;;;;;;32.63;3.67;;;;;;;9.78;100.00;99969.25;4994610;28;20404;-83
2023/11/14 00:08:27;;;;;;;33.28;5.28;;;;;;;9.79;100.00;99975.22;5021289;28;20036;-82
2023/11/14 00:10:52;;;;;;;27.55;3.40;;;;;;;9.72;100.00;99982.88;5006813;28;20408;-81
2023/11/14 00:13:18;;;;;;;35.30;4.03;;;;;;;9.80;100.00;99988.00;4999316;28;20029;-79
2023/11/14 00:15:44;;;;;;;38.13;4.80;;;;;;;9.77;100.00;99974.59;5019809;28;20497;-81
2023/11/14 00:18:09;;;;;;;27.35;3.40;;;;;;;9.89;100.00;99983.59;5002059;28;20064;-83
2023/11/14 00:20:35;;;;;;;24.63;3.20;;;;;;;9.85;100.00;99988.31;5003635;28;20044;-81
2023/11/14 00:23:01;;;;;;;25.00;3.42;;;;;;;9.87;100.00;99981.16;5011579;28;20044;-83
2023/11/14 00:25:27;;;;;;;30.83;3.70;;;;;;;9.81;100.00;99974.06;5003166;28;20042;-81
2023/11/14 00:27:53;;;;;;;39.05;4.43;;;;;;;9.78;100.00;99971.03;5002569;28;20034;-82
2023/11/14 00:30:19;;;;;;;23.50;4.03;;;;;;;9.80;100.00;99982.03;5004176;28;20038;-81
2023/11/14 00:32:46;;;;;;;28.75;3.72;;;;;;;9.81;100.00;99975.84;5011545;28;20034;-81
2023/11/14 00:35:12;;;;;;;31.13;3.90;;;;;;;9.92;100.00;99998.75;5008051;28;20025;-84
2023/11/14 00:37:37;;;;;;;25.90;4.15;;;;;;;9.92;100.00;99985.81;4996637;28;20390;-82
2023/11/14 00:40:04;;;;;;;32.20;4.38;;;;;;;10.01;100.00;99984.00;4994211;28;20125;-83
2023/11/14 00:42:29;;;;;;;42.47;5.78;;;;;;;10.01;100.00;99982.19;5014034;28;20424;-83
2023/11/14 00:44:55;;;;;;;32.95;4.68;;;;;;;9.99;100.00;99989.34;4992268;28;20067;-80
2023/11/14 00:47:21;;;;;;;31.42;4.78;;;;;;;10.08;100.00;99990.09;5009216;28;20025;-82
2023/11/14 00:49:47;;;;;;;35.42;4.60;;;;;;;10.09;100.00;99986.53;5006122;28;20045;-82
2023/11/14 00:52:13;;;;;;;37.28;6.00;;;;;;;10.08;100.00;99987.50;4995446;28;20515;-81
2023/11/14 00:54:39;;;;;;;32.53;5.47;;;;;;;10.11;100.00;100005.28;4993066;28;20424;-80
2023/11/14 00:57:05;;;;;;;37.95;4.45;;;;;;;10.03;100.00;99995.78;4995305;28;20033;-80
2023/11/14 00:59:30;;;;;;;30.55;3.75;;;;;;;10.04;100.00;99999.16;5000660;28;20037;-83
2023/11/14 01:01:58;;;;;;;36.38;4.57;;;;;;;10.05;100.00;99999.00;5004024;28;20048;-79
2023/11/14 01:04:24;;;;;;;35.08;4.78;;;;;;;10.07;100.00;100004.81;4985597;28;20037;-83
2023/11/14 01:06:50;;;;;;;34.05;4.20;;;;;;;10.11;100.00;100021.66;5008831;28;20033;-81
2023/11/14 01:09:15;;;;;;;43.40;4.38;;;;;;;10.15;100.00;100009.13;5007888;28;20060;-81
2023/11/14 01:11:41;;;;;;;32.20;4.30;;;;;;;10.21;100.00;100007.63;5029515;28;20037;-82
2023/11/14 01:14:07;;;;;;;25.38;2.92;;;;;;;10.16;100.00;100002.19;4991998;28;20025;-80
2023/11/14 01:16:32;;;;;;;37.60;4.82;;;;;;;10.17;100.00;100001.19;5002347;28;20032;-84
2023/11/14 01:18:58;;;;;;;46.35;4.55;;;;;;;10.12;100.00;99992.16;5002825;28;20037;-83
2023/11/14 01:21:23;;;;;;;35.55;4.72;;;;;;;10.11;100.00;99995.75;4994364;28;20029;-81
2023/11/14 01:23:49;;;;;;;32.35;4.20;;;;;;;10.13;100.00;100004.16;5004527;28;20567;-82
2023/11/14 01:26:14;;;;;;;39.53;4.95;;;;;;;10.19;100.00;100007.84;4986051;28;20594;-83
2023/11/14 01:28:41;;;;;;;33.97;3.92;;;;;;;10.17;100.00;99996.84;4993768;28;20037;-81
2023/11/14 01:31:07;;;;;;;31.35;4.53;;;;;;;10.16;100.00;100010.75;4997143;28;20116;-80
2023/11/14 01:33:35;;;;;;;38.20;4.43;;;;;;;10.14;100.00;100005.75;5000127;28;20026;-81
2023/11/14 01:36:00;;;;;;;40.72;4.05;;;;;;;10.18;100.00;100008.81;4989063;28;20090;-82
2023/11/14 01:38:26;;;;;;;33.67;3.92;;;;;;;10.05;100.00;100011.16;5006748;28;20042;-84
2023/11/14 01:40:51;;;;;;;33.42;3.63;;;;;;;10.12;100.00;100006.91;5001494;28;20037;-81
2023/11/14 01:43:17;;;;;;;35.92;4.38;;;;;;;10.24;100.00;100020.25;5005201;28;20033;-83
2023/11/14 01:45:43;;;;;;;34.78;4.47;;;;;;;10.16;100.00;100025.50;4979932;28;20041;-83
2023/11/14 01:48:10;;;;;;;46.92;4.45;;;;;;;10.19;100.00;100025.97;4986535;28;20034;-79
2023/11/14 01:50:37;;;;;;;28.25;3.38;;;;;;;10.14;100.00;100036.03;4995565;28;20091;-80
2023/11/14 01:53:04;;;;;;;39.85;5.32;;;;;;;10.10;100.00;100027.00;5005629;28;20044;-82
2023/11/14 01:55:31;;;;;;;37.70;5.22;;;;;;;10.18;100.00;100020.97;4991824;28;20040;-80
2023/11/14 01:57:57;;;;;;;38.38;5.50;;;;;;;10.12;100.00;100030.22;4992500;28;20213;-82
2023/11/14 02:00:22;;;;;;;30.30;4.15;;;;;;;10.08;100.00;100039.31;5003203;28;20510;-83
2023/11/14 02:02:48;;;;;;;33.40;4.25;;;;;;;10.04;100.00;100038.03;4987790;28;20034;-80
2023/11/14 02:05:17;;;;;;;40.97;6.32;;;;;;;10.03;100.00;100057.16;5006298;28;20029;-82
2023/11/14 02:07:43;;;;;;;26.58;3.78;;;;;;;10.07;100.00;100038.50;4995619;28;20037;-83
2023/11/14 02:10:10;;;;;;;33.15;4.15;;;;;;;10.06;100.00;100038.69;4988612;28;20037;-81
2023/11/14 02:12:36;;;;;;;37.42;4.38;;;;;;;10.08;100.00;100055.66;4983797;28;20654;-81
2023/11/14 02:15:05;;;;;;;34.72;4.50;;;;;;;10.01;100.00;100059.09;5017024;28;20085;-79
2023/11/14 02:17:31;;;;;;;36.53;4.32;;;;;;;10.04;100.00;100043.19;4990410;28;20055;-81
2023/11/14 02:19:57;;;;;;;34.20;3.83;;;;;;;10.07;100.00;100042.88;4983479;28;20424;-83
2023/11/14 02:22:22;;;;;;;33.88;4.25;;;;;;;9.95;100.00;100050.22;4988572;28;20029;-81
2023/11/14 02:24:51;;;;;;;31.00;4.10;;;;;;;10.05;100.00;100055.19;4998266;28;20044;-80
2023/11/14 02:27:19;;;;;;;33.45;4.03;;;;;;;10.02;100.00;100052.94;5006565;28;20108;-82
2023/11/14 02:29:45;;;;;;;39.38;5.38;;;;;;;10.09;100.00;100061.63;5006918;28;20577;-78
2023/11/14 02:32:10;;;;;;;31.27;3.88;;;;;;;10.16;100.00;100064.38;5019669;28;20045;-82
2023/11/14 02:34:36;;;;;;;27.05;4.30;;;;;;;10.23;100.00;100068.69;5000137;28;20544;-82
2023/11/14 02:37:02;;;;;;;38.85;4.90;;;;;;;10.24;100.00;100062.50;4998952;28;20033;-81
2023/11/14 02:39:30;;;;;;;33.92;5.00;;;;;;;10.29;100.00;100064.59;5002267;28;20034;-80
2023/11/14 02:41:56;;;;;;;48.15;5.13;;;;;;;10.25;100.00;100068.53;5001338;28;20113;-82
2023/11/14 02:44:21;;;;;;;36.20;3.72;;;;;;;10.25;100.00;100068.53;5013653;28;20508;-81
2023/11/14 02:46:47;;;;;;;35.50;4.60;;;;;;;10.19;100.00;100079.56;4989101;28;20017;-81
2023/11/14 02:49:31;;;;;;;32.38;4.53;;;;;;;10.14;100.00;100075.69;4984078;28;20048;-81
2023/11/14 02:51:57;;;;;;;39.28;4.72;;;;;;;10.08;100.00;100067.81;4992047;28;20085;-81
2023/11/14 02:54:24;;;;;;;36.72;4.85;;;;;;;10.08;100.00;100078.97;4996189;28;20392;-81
2023/11/14 02:56:49;;;;;;;46.75;5.53;;;;;;;10.07;100.00;100076.53;4989219;28;20041;-83
2023/11/14 02:59:15;;;;;;;35.38;3.78;;;;;;;10.12;100.00;100066.50;4992594;28;20056;-81
2023/11/14 03:01:41;;;;;;;36.67;4.78;;;;;;;10.08;100.00;100049.69;5001236;28;20067;-80
2023/11/14 03:04:06;;;;;;;40.03;4.90;;;;;;;10.12;100.00;100071.66;5002828;28;20060;-80
2023/11/14 03:06:32;;;;;;;35.85;3.95;;;;;;;10.04;100.00;100075.13;4991688;28;20034;-80
2023/11/14 03:08:57;;;;;;;37.60;5.28;;;;;;;10.05;100.00;100058.56;5006811;28;20030;-81
2023/11/14 03:11:23;;;;;;;44.30;5.82;;;;;;;9.95;100.00;100055.41;5004498;28;20029;-80
2023/11/14 03:13:48;;;;;;;38.63;4.22;;;;;;;9.96;100.00;100063.97;5004063;28;20089;-80
2023/11/14 03:16:14;;;;;;;40.97;4.13;;;;;;;9.99;100.00;100068.84;5019446;28;20029;-82
2023/11/14 03:18:40;;;;;;;37.97;3.60;;;;;;;10.05;100.00;100070.72;4995358;28;20390;-79
2023/11/14 03:21:05;;;;;;;35.03;4.88;;;;;;;10.10;100.00;100077.03;4992315;28;20556;-82
2023/11/14 03:23:31;;;;;;;36.92;4.18;;;;;;;10.02;100.00;100077.06;4994850;28;20034;-81
2023/11/14 03:25:56;;;;;;;39.70;5.05;;;;;;;10.05;100.00;100088.88;4991818;28;20030;-81
2023/11/14 03:28:22;;;;;;;33.08;3.92;;;;;;;9.98;100.00;100072.38;5003117;28;20038;-78
2023/11/14 03:30:47;;;;;;;43.30;5.57;;;;;;;10.00;100.00;100073.84;4992407;28;20046;-82
2023/11/14 03:33:13;;;;;;;37.17;5.30;;;;;;;9.99;100.00;100068.84;4995191;28;20030;-81
2023/11/14 03:35:38;;;;;;;45.72;4.95;;;;;;;9.96;100.00;100071.75;4999991;28;20041;-83
2023/11/14 03:38:04;;;;;;;22.75;3.47;;;;;;;9.94;100.00;100075.31;4989471;28;20026;-79
2023/11/14 03:40:29;;;;;;;46.40;6.10;;;;;;;9.94;100.00;100074.50;4991420;28;20048;-83
2023/11/14 03:42:55;;;;;;;38.67;5.35;;;;;;;9.94;100.00;100077.91;5005377;28;20029;-81
2023/11/14 03:45:21;;;;;;;39.60;4.30;;;;;;;9.96;100.00;100085.50;5001916;28;20029;-81
2023/11/14 03:47:47;;;;;;;32.22;5.22;;;;;;;9.93;100.00;100086.66;5001086;28;20032;-82
2023/11/14 03:50:12;;;;;;;47.28;8.05;;;;;;;10.03;100.00;100083.84;4995796;28;20041;-80
2023/11/14 03:52:38;;;;;;;47.80;8.68;;;;;;;10.01;100.00;100083.22;5005903;28;20061;-82
2023/11/14 03:55:03;;;;;;;61.83;12.98;;;;;;;10.02;100.00;100082.25;5007380;28;20141;-81
2023/11/14 03:57:29;;;;;;;66.18;15.20;;;;;;;10.05;100.00;100074.13;5009503;28;20038;-83
2023/11/14 03:59:54;;;;;;;65.00;16.75;;;;;;;10.00;100.00;100094.56;4994503;28;20041;-82
2023/11/14 04:02:20;;;;;;;39.78;6.40;;;;;;;9.96;100.00;100102.81;5006862;28;20041;-82
2023/11/14 04:04:45;;;;;;;52.58;12.45;;;;;;;9.91;100.00;100098.97;5020277;28;20041;-83
2023/11/14 04:07:11;;;;;;;32.65;6.03;;;;;;;9.90;100.00;100099.94;4996952;28;20042;-81
2023/11/14 04:09:40;;;;;;;46.58;6.30;;;;;;;9.97;100.00;100113.03;4995600;28;20056;-81
2023/11/14 04:12:06;;;;;;;30.42;6.15;;;;;;;10.02;100.00;100092.63;4994267;28;20037;-82
2023/11/14 04:14:31;;;;;;;31.38;5.28;;;;;;;9.98;100.00;100095.69;4995271;28;20039;-81
2023/11/14 04:16:57;;;;;;;41.60;7.85;;;;;;;9.93;100.00;100089.25;4998281;28;20025;-83
2023/11/14 04:19:22;;;;;;;37.28;4.90;;;;;;;10.08;100.00;100093.72;5024372;28;20045;-81
2023/11/14 04:21:48;;;;;;;32.20;5.03;;;;;;;10.04;100.00;100092.41;5003869;28;20033;-83
2023/11/14 04:24:13;;;;;;;24.95;3.75;;;;;;;9.97;100.00;100086.31;5002503;28;20025;-83
2023/11/14 04:26:42;;;;;;;34.05;4.20;;;;;;;9.98;100.00;100087.91;4996416;28;20041;-80
2023/11/14 04:29:08;;;;;;;38.08;4.20;;;;;;;10.03;100.00;100086.44;4995898;28;20037;-80
2023/11/14 04:31:33;;;;;;;33.17;4.65;;;;;;;10.06;100.00;100088.69;4998166;28;20030;-81
2023/11/14 04:33:58;;;;;;;27.52;4.18;;;;;;;10.05;100.00;100087.06;5004624;28;20049;-79
2023/11/14 04:36:24;;;;;;;40.88;8.05;;;;;;;10.04;100.00;100089.81;5006641;28;20034;-80
2023/11/14 04:38:50;;;;;;;38.63;7.07;;;;;;;10.07;100.00;100087.72;5005575;28;20044;-81
2023/11/14 04:41:18;;;;;;;37.10;6.25;;;;;;;10.03;100.00;100093.41;5023685;28;20037;-80
2023/11/14 04:43:45;;;;;;;37.13;5.82;;;;;;;10.05;100.00;100094.03;5003302;28;20029;-83
2023/11/14 04:46:12;;;;;;;50.40;11.90;;;;;;;10.04;100.00;100095.84;4987377;28;20026;-80
2023/11/14 04:48:37;;;;;;;37.70;7.90;;;;;;;10.06;100.00;100093.88;4999105;28;20022;-81
2023/11/14 04:51:03;;;;;;;30.63;6.18;;;;;;;10.14;100.00;100087.84;4995638;28;20045;-82
2023/11/14 04:53:29;;;;;;;41.53;4.97;;;;;;;10.01;100.00;100100.53;4988987;28;20489;-81
2023/11/14 04:55:55;;;;;;;36.90;4.18;;;;;;;10.01;100.00;100079.81;5005365;28;20042;-83
2023/11/14 04:58:20;;;;;;;45.63;4.63;;;;;;;10.07;100.00;100082.53;4989031;28;20037;-80
2023/11/14 05:00:46;;;;;;;37.70;5.72;;;;;;;10.14;100.00;100090.44;4995398;28;20600;-81
2023/11/14 05:03:11;;;;;;;40.13;4.47;;;;;;;10.16;100.00;100091.06;4994848;28;20030;-82
2023/11/14 05:05:37;;;;;;;28.60;4.45;;;;;;;10.06;100.00;100086.09;4995644;28;20030;-82
2023/11/14 05:08:03;;;;;;;33.10;5.75;;;;;;;10.05;100.00;100087.06;4987141;28;20037;-81
2023/11/14 05:10:28;;;;;;;28.10;4.53;;;;;;;10.07;100.00;100087.72;5004015;28;20083;-81
2023/11/14 05:12:54;;;;;;;28.23;4.15;;;;;;;10.19;100.00;100093.34;5003868;28;20029;-82
2023/11/14 05:15:19;;;;;;;38.83;5.57;;;;;;;10.15;100.00;100092.03;5010113;28;20694;-81
2023/11/14 05:17:45;;;;;;;33.25;4.28;;;;;;;10.21;100.00;100096.56;4999381;28;20034;-83
2023/11/14 05:20:11;;;;;;;35.22;5.40;;;;;;;10.25;100.00;100103.00;5006130;28;20034;-80
2023/11/14 05:22:38;;;;;;;38.25;6.75;;;;;;;10.18;100.00;100117.63;5004033;28;20384;-82
2023/11/14 05:25:04;;;;;;;31.02;4.35;;;;;;;10.22;100.00;100111.13;5003099;28;20036;-80
2023/11/14 05:27:30;;;;;;;35.28;3.92;;;;;;;10.10;100.00;100100.34;4990382;28;20034;-81
2023/11/14 05:29:55;;;;;;;31.15;3.70;;;;;;;10.12;100.00;100126.06;4996717;28;20071;-80
2023/11/14 05:32:21;;;;;;;31.15;4.03;;;;;;;10.19;100.00;100113.22;5007523;28;20041;-80
2023/11/14 05:34:47;;;;;;;37.58;4.85;;;;;;;10.11;100.00;100124.44;4999532;28;20512;-83
2023/11/14 05:37:12;;;;;;;34.75;4.97;;;;;;;10.08;100.00;100120.41;4991751;28;20041;-79
2023/11/14 05:39:37;;;;;;;38.53;4.95;;;;;;;10.22;100.00;100136.22;4999795;28;20045;-82
2023/11/14 05:42:05;;;;;;;38.67;4.20;;;;;;;10.20;100.00;100148.53;4997538;28;20036;-82
2023/11/14 05:44:30;;;;;;;38.97;4.70;;;;;;;10.22;100.00;100144.00;5011293;28;20037;-82
2023/11/14 05:46:56;;;;;;;39.00;4.10;;;;;;;10.28;100.00;100143.31;4997502;28;20040;-81
2023/11/14 05:49:22;;;;;;;35.47;4.32;;;;;;;10.13;100.00;100145.81;5005373;28;20037;-83
2023/11/14 05:51:47;;;;;;;34.40;3.67;;;;;;;10.20;100.00;100138.97;4997234;28;20396;-82
2023/11/14 05:54:13;;;;;;;36.20;5.18;;;;;;;10.23;100.00;100151.59;4985532;28;20033;-80
2023/11/14 05:56:38;;;;;;;31.98;6.28;;;;;;;10.15;100.00;100149.03;5009014;28;20046;-82
2023/11/14 05:59:06;;;;;;;33.33;5.10;;;;;;;10.20;100.00;100138.19;4992611;28;20045;-80
2023/11/14 06:01:31;;;;;;;32.25;3.58;;;;;;;10.22;100.00;100149.19;5005850;28;20091;-81
2023/11/14 06:03:57;;;;;;;35.65;4.30;;;;;;;10.22;100.00;100149.19;4993909;28;20045;-84
2023/11/14 06:06:22;;;;;;;29.90;4.32;;;;;;;10.18;100.00;100166.03;4992491;28;20034;-83
2023/11/14 06:08:48;;;;;;;34.30;4.38;;;;;;;10.12;100.00;100151.97;4993720;28;20455;-81
2023/11/14 06:11:13;;;;;;;27.83;3.63;;;;;;;10.15;100.00;100143.84;5007342;28;20045;-83
2023/11/14 06:13:39;;;;;;;44.17;4.80;;;;;;;10.30;100.00;100131.00;4997634;28;20033;-81
2023/11/14 06:16:05;;;;;;;41.22;5.55;;;;;;;10.27;100.00;100170.22;5001440;28;20484;-82
2023/11/14 06:18:30;;;;;;;30.42;4.43;;;;;;;10.29;100.00;100166.47;5009771;28;20373;-83
2023/11/14 06:21:00;;;;;;;41.60;4.70;;;;;;;10.28;100.00;100175.22;5009531;28;20034;-81
2023/11/14 06:23:26;;;;;;;34.88;5.03;;;;;;;10.31;100.00;100171.53;5004183;28;20042;-80
2023/11/14 06:25:52;;;;;;;32.35;3.70;;;;;;;10.36;100.00;100148.50;5007064;28;20072;-81
2023/11/14 06:28:18;;;;;;;30.42;4.30;;;;;;;10.28;100.00;100138.97;5024271;28;20070;-82
2023/11/14 06:30:43;;;;;;;39.38;5.45;;;;;;;10.33;100.00;100148.81;4995573;28;20040;-82
2023/11/14 06:33:08;;;;;;;45.22;4.70;;;;;;;10.38;100.00;100169.88;5012236;28;20033;-80
2023/11/14 06:35:34;;;;;;;26.15;5.78;;;;;;;10.42;100.00;100175.53;4997465;28;20377;-82
2023/11/14 06:38:00;;;;;;;43.67;5.22;;;;;;;10.35;100.00;100170.19;5027488;28;20058;-80
2023/11/14 06:40:25;;;;;;;36.53;7.07;;;;;;;10.33;100.00;100177.34;4993566;28;20041;-82
2023/11/14 06:42:51;;;;;;;36.63;5.43;;;;;;;10.31;100.00;100179.28;5011040;28;20057;-81
2023/11/14 06:45:17;;;;;;;41.40;6.15;;;;;;;10.36;100.00;100158.03;4996423;28;20444;-83
2023/11/14 06:47:43;;;;;;;35.40;5.20;;;;;;;10.38;100.00;100175.06;4999877;28;20147;-82
2023/11/14 06:50:10;;;;;;;30.08;4.03;;;;;;;10.41;100.00;100169.50;5011276;28;20512;-85
2023/11/14 06:52:36;;;;;;;46.90;5.88;;;;;;;10.35;100.00;100177.16;4996872;28;20043;-81
2023/11/14 06:55:02;;;;;;;39.80;5.05;;;;;;;10.37;100.00;100162.25;5032324;28;20126;-80
2023/11/14 06:57:28;;;;;;;31.13;3.92;;;;;;;10.28;100.00;100153.69;5013503;28;20365;-77
2023/11/14 06:59:53;;;;;;;36.53;4.03;;;;;;;10.31;100.00;100164.53;5013626;28;20033;-81
2023/11/14 07:02:20;;;;;;;32.45;4.32;;;;;;;10.35;100.00;100164.22;4990427;28;20026;-80
2023/11/14 07:04:45;;;;;;;35.60;3.72;;;;;;;10.44;100.00;100169.19;5004865;28;20033;-79
2023/11/14 07:07:11;;;;;;;40.17;3.80;;;;;;;10.41;100.00;100182.47;5026444;28;20040;-80
2023/11/14 07:09:37;;;;;;;31.55;4.30;;;;;;;10.45;100.00;100185.53;5006276;28;20052;-79
2023/11/14 07:12:03;;;;;;;30.95;4.07;;;;;;;10.36;100.00;100184.78;5001614;28;20040;-79
2023/11/14 07:14:29;;;;;;;24.85;4.70;;;;;;;10.29;100.00;100183.81;4998611;28;20120;-78
2023/11/14 07:16:56;;;;;;;30.23;4.30;;;;;;;10.36;100.00;100187.38;5009892;28;20033;-78
2023/11/14 07:19:21;;;;;;;35.33;4.47;;;;;;;10.29;100.00;100213.09;4999709;28;20037;-80
2023/11/14 07:21:47;;;;;;;32.85;4.10;;;;;;;10.36;100.00;100220.22;5017548;28;20380;-79
2023/11/14 07:24:14;;;;;;;22.50;3.58;;;;;;;10.39;100.00;100214.72;4997922;28;20080;-78
2023/11/14 07:26:40;;;;;;;31.60;3.97;;;;;;;10.39;100.00;100212.13;5006912;28;20036;-78
2023/11/14 07:29:06;;;;;;;35.88;3.40;;;;;;;10.42;100.00;100199.66;5031239;28;20100;-77
2023/11/14 07:31:31;;;;;;;27.33;3.78;;;;;;;10.43;100.00;100203.03;4994531;28;20083;-79
2023/11/14 07:33:57;;;;;;;34.75;4.75;;;;;;;10.44;100.00;100189.13;4994615;28;20038;-78
2023/11/14 07:36:24;;;;;;;32.72;4.22;;;;;;;10.43;100.00;100190.88;5011085;28;20084;-80
2023/11/14 07:38:50;;;;;;;40.83;4.82;;;;;;;10.35;100.00;100185.75;5019952;28;20087;-79
2023/11/14 07:41:15;;;;;;;36.40;6.00;;;;;;;10.44;100.00;100184.72;5007743;28;20512;-79
2023/11/14 07:43:41;;;;;;;26.23;3.63;;;;;;;10.37;100.00;100186.38;5014119;28;20029;-80
2023/11/14 07:46:08;;;;;;;23.27;3.72;;;;;;;10.31;100.00;100190.47;5001136;28;20057;-78
2023/11/14 07:48:34;;;;;;;27.88;3.45;;;;;;;10.37;100.00;100183.78;5020720;28;20041;-79
2023/11/14 07:51:00;;;;;;;22.77;3.05;;;;;;;10.40;100.00;100183.47;4999313;28;20051;-79
2023/11/14 07:53:26;;;;;;;43.38;4.03;;;;;;;10.44;100.00;100184.72;5006752;28;20988;-77
2023/11/14 07:55:52;;;;;;;27.08;3.83;;;;;;;10.46;100.00;100180.19;5012692;28;20038;-79
2023/11/14 07:58:17;;;;;;;36.60;7.03;;;;;;;10.47;100.00;100178.38;5023309;28;20044;-79
2023/11/14 08:00:43;;;;;;;38.28;4.10;;;;;;;10.50;100.00;100178.84;5014431;28;20037;-80
2023/11/14 08:03:10;;;;;;;25.95;4.30;;;;;;;10.52;100.00;100165.72;5026151;28;20642;-80
2023/11/14 08:05:40;;;;;;;27.60;4.32;;;;;;;10.44;100.00;100174.38;4997347;28;20022;-80
2023/11/14 08:08:08;;;;;;;32.53;5.18;;;;;;;10.59;100.00;100179.63;5004098;28;20095;-80
2023/11/14 08:10:35;;;;;;;28.90;5.20;;;;;;;10.55;100.00;100191.31;5037081;28;20038;-78
2023/11/14 08:13:00;;;;;;;31.38;7.53;;;;;;;10.58;100.00;100185.78;5007738;28;20034;-78
2023/11/14 08:15:26;;;;;;;31.38;8.68;;;;;;;10.63;100.00;100193.06;5008036;28;20034;-78
2023/11/14 08:17:51;;;;;;;38.58;9.65;;;;;;;10.57;100.00;100210.09;4993335;28;20068;-78
2023/11/14 08:20:17;;;;;;;36.40;6.85;;;;;;;10.70;100.00;100201.78;4994522;28;20467;-79
2023/11/14 08:22:42;;;;;;;55.22;14.50;;;;;;;10.68;100.00;100212.31;5002289;28;20049;-78
2023/11/14 08:25:09;;;;;;;32.78;5.85;;;;;;;10.79;100.00;100205.91;5007825;28;20038;-82
2023/11/14 08:27:34;;;;;;;49.35;12.68;;;;;;;10.75;100.00;100212.44;5009054;28;20076;-80
2023/11/14 08:30:00;;;;;;;33.17;6.47;;;;;;;10.80;100.00;100207.53;5011039;28;20037;-80
2023/11/14 08:32:25;;;;;;;40.47;8.90;;;;;;;10.80;100.00;100210.13;5003855;28;20452;-78
2023/11/14 08:34:51;;;;;;;25.92;3.47;;;;;;;10.87;100.00;100197.31;4993041;28;20037;-76
2023/11/14 08:37:16;;;;;;;27.92;4.85;;;;;;;10.95;100.00;100199.81;5010698;28;20056;-80
2023/11/14 08:39:42;;;;;;;39.17;7.05;;;;;;;10.94;100.00;100189.63;4965328;28;20100;-79
2023/11/14 08:42:11;;;;;;;34.28;6.40;;;;;;;11.01;100.00;100186.16;4980886;28;20377;-78
2023/11/14 08:44:38;;;;;;;44.47;10.95;;;;;;;10.93;100.00;100180.25;5006965;28;20049;-77
2023/11/14 08:47:04;;;;;;;42.72;9.55;;;;;;;10.98;100.00;100185.69;4999500;28;20025;-81
2023/11/14 08:49:30;;;;;;;54.08;14.32;;;;;;;10.94;100.00;100187.81;4993952;28;20126;-80
2023/11/14 08:51:56;;;;;;;55.75;15.98;;;;;;;11.10;100.00;100189.50;5011455;28;20451;-80
2023/11/14 08:54:21;;;;;;;37.58;7.15;;;;;;;11.04;100.00;100183.22;5002946;28;20025;-79
2023/11/14 08:56:47;;;;;;;34.53;9.80;;;;;;;11.01;100.00;100180.97;4992816;28;20040;-79
2023/11/14 08:59:13;;;;;;;70.32;19.45;;;;;;;11.03;100.00;100184.19;5012854;28;20047;-78
2023/11/14 09:01:39;;;;;;;51.97;14.48;;;;;;;11.03;100.00;100201.56;5010130;28;20029;-78
2023/11/14 09:04:04;;;;;;;63.05;15.52;;;;;;;10.99;100.00;100189.91;5011500;28;20037;-79
2023/11/14 09:06:30;;;;;;;114.15;30.35;;;;;;;10.88;100.00;100201.50;5000252;28;20037;-79
2023/11/14 09:08:55;;;;;;;79.10;19.92;;;;;;;10.85;100.00;100197.47;5028475;28;20038;-80
2023/11/14 09:11:22;;;;;;;41.13;7.95;;;;;;;10.98;100.00;100201.25;5013632;28;20491;-79
2023/11/14 09:13:49;;;;;;;74.78;21.55;;;;;;;10.90;100.00;100183.97;4991179;28;20488;-78
2023/11/14 09:16:15;;;;;;;40.30;10.07;;;;;;;10.98;100.00;100190.88;5006504;28;20026;-80
2023/11/14 09:18:41;;;;;;;49.33;11.23;;;;;;;11.08;100.00;100186.28;5001366;28;20042;-82
2023/11/14 09:21:06;;;;;;;37.10;3.97;;;;;;;11.09;100.00;100182.69;4999577;28;20065;-78
2023/11/14 09:23:32;;;;;;;43.00;7.95;;;;;;;11.15;100.00;100179.41;5005497;28;20033;-78
2023/11/14 09:25:59;;;;;;;46.05;8.68;;;;;;;11.28;100.00;100174.44;4995228;28;20389;-79
2023/11/14 09:28:24;;;;;;;40.35;6.40;;;;;;;11.33;100.00;100180.88;5006933;28;20519;-80
2023/11/14 09:30:50;;;;;;;40.35;7.38;;;;;;;11.47;100.00;100173.13;4988252;28;20038;-78
2023/11/14 09:33:15;;;;;;;29.30;5.03;;;;;;;11.48;100.00;100176.53;5023019;28;20060;-77
2023/11/14 09:35:41;;;;;;;20.10;3.65;;;;;;;11.43;100.00;100169.28;5021343;28;20088;-79
2023/11/14 09:38:06;;;;;;;30.85;5.43;;;;;;;11.46;100.00;100189.69;4995275;28;20041;-79
2023/11/14 09:40:32;;;;;;;25.80;4.05;;;;;;;11.47;100.00;100190.47;4984684;28;20037;-80
2023/11/14 09:42:57;;;;;;;37.40;5.28;;;;;;;11.42;100.00;100185.03;5006107;28;20030;-78
2023/11/14 09:45:24;;;;;;;32.75;3.95;;;;;;;11.39;100.00;100195.75;4994990;28;20053;-80
2023/11/14 09:47:50;;;;;;;35.55;4.45;;;;;;;11.48;100.00;100205.88;4995014;28;20064;-80
2023/11/14 09:50:16;;;;;;;22.95;2.95;;;;;;;11.47;100.00;100203.47;4986206;28;20037;-78
2023/11/14 09:52:42;;;;;;;32.55;4.57;;;;;;;11.44;100.00;100216.81;5013440;28;20029;-80
2023/11/14 09:55:11;;;;;;;24.90;3.35;;;;;;;11.45;100.00;100214.03;4994305;28;20442;-77
2023/11/14 09:57:37;;;;;;;27.63;4.50;;;;;;;11.50;100.00;100218.69;5035701;28;20136;-77
2023/11/14 10:00:11;;;;;;;24.65;4.55;;;;;;;11.37;100.00;100213.28;5001832;28;20569;-79
2023/11/14 10:02:38;;;;;;;28.63;3.70;;;;;;;11.31;100.00;100227.78;4982478;28;20045;-78
2023/11/14 10:05:05;;;;;;;24.85;3.10;;;;;;;11.35;100.00;100230.84;4995981;28;20122;-78
2023/11/14 10:07:31;;;;;;;26.65;3.40;;;;;;;11.38;100.00;100230.50;4988566;28;21392;-78
2023/11/14 10:10:00;;;;;;;25.88;4.40;;;;;;;11.38;100.00;100225.31;5003991;28;20104;-79
2023/11/14 10:12:37;;;;;;;31.42;3.83;;;;;;;11.32;100.00;100221.63;5002892;28;20038;-80
2023/11/14 10:15:03;;;;;;;27.77;4.68;;;;;;;11.43;100.00;100213.41;5017244;28;20045;-78
2023/11/14 10:17:47;;;;;;;17.23;2.83;;;;;;;11.53;100.00;100214.94;4995282;28;20048;-80
2023/11/14 10:20:14;;;;;;;29.00;4.85;;;;;;;11.48;100.00;100221.47;5003542;28;20079;-80
2023/11/14 10:22:50;;;;;;;28.20;3.20;;;;;;;11.53;100.00;100209.75;5006373;28;20030;-82
2023/11/14 10:25:31;;;;;;;33.35;5.55;;;;;;;11.52;100.00;100223.72;5005918;28;20125;-81
2023/11/14 10:28:06;;;;;;;30.17;4.18;;;;;;;11.55;100.00;100213.78;5002325;28;20069;-79
2023/11/14 10:30:45;;;;;;;21.38;4.57;;;;;;;11.50;100.00;100226.47;4992724;28;20057;-79
2023/11/14 10:33:12;;;;;;;23.05;4.93;;;;;;;11.39;100.00;100208.72;5009405;28;20053;-79
2023/11/14 10:35:40;;;;;;;23.17;3.60;;;;;;;11.27;100.00;100205.75;5004323;28;20044;-80
2023/11/14 10:38:19;;;;;;;26.85;4.22;;;;;;;11.21;100.00;100191.69;4988846;28;20546;-80
2023/11/14 10:40:51;;;;;;;26.50;4.35;;;;;;;11.23;100.00;100207.09;5010068;28;20037;-78
2023/11/14 10:43:34;;;;;;;22.42;3.60;;;;;;;11.13;100.00;100191.72;5023023;28;20105;-78
2023/11/14 10:46:15;;;;;;;26.90;3.53;;;;;;;10.97;100.00;100194.47;5026766;28;20029;-81
2023/11/14 10:48:42;;;;;;;32.95;4.43;;;;;;;10.88;100.00;100196.31;5008286;28;20034;-80
2023/11/14 10:51:08;;;;;;;20.80;5.05;;;;;;;10.85;100.00;100210.44;5022506;28;20034;-80
2023/11/14 10:53:34;;;;;;;34.28;8.77;;;;;;;10.67;100.00;100189.16;5011051;28;20033;-80
2023/11/14 10:56:02;;;;;;;13.70;2.55;;;;;;;10.74;100.00;100191.84;5006608;28;20527;-81
2023/11/14 10:58:29;;;;;;;21.50;3.80;;;;;;;10.66;100.00;100183.16;5007759;28;20034;-80
2023/11/14 11:00:56;;;;;;;33.45;3.92;;;;;;;10.68;100.00;100175.19;4997745;28;20044;-78
2023/11/14 11:03:24;;;;;;;21.20;3.83;;;;;;;10.61;100.00;100171.69;5004835;28;20033;-77
2023/11/14 11:05:50;;;;;;;20.33;4.35;;;;;;;10.67;100.00;100171.78;5011008;28;20116;-78